LAS weather

McCarran International Airport
Las Vegas, Nevada, United States

Public forecast

Using degrees Fahrenheit for public forecast. Weather courtesy of forecast.io.

METAR (pilot weather report)

Retrieved 2017/11/19 15:56 UTC (53 minutes ago):

KLAS 191556Z 27003KT 10SM FEW250 08/M11 A3023 RMK AO2 SLP236 T00831106

TAF (pilot weather forecast)

Retrieved 2017/11/19 12:30 UTC (4 hours ago):

TAF KLAS 191129Z 1912/2018 21006KT P6SM SCT250 FM191600 VRB05KT P6SM SCT250 FM200300 21006KT P6SM BKN250 FM201600 VRB05KT P6SM BKN250